createdAt,value
2018-07-25T00:01:08.124Z,1008.84
2018-07-25T00:02:17.789Z,1008.85
2018-07-25T00:03:27.889Z,1008.87
2018-07-25T00:04:37.056Z,1008.89
2018-07-25T00:05:45.959Z,1008.86
2018-07-25T00:06:55.377Z,1008.89
2018-07-25T00:08:04.785Z,1008.88
2018-07-25T00:09:14.464Z,1008.9
2018-07-25T00:10:23.877Z,1008.87
2018-07-25T00:11:32.771Z,1008.87
2018-07-25T00:12:42.445Z,1008.89
2018-07-25T00:13:52.380Z,1008.86
2018-07-25T00:15:02.060Z,1008.89
2018-07-25T00:16:11.729Z,1008.89
2018-07-25T00:17:20.898Z,1008.9
2018-07-25T00:18:30.051Z,1008.9
2018-07-25T00:19:39.449Z,1008.85
2018-07-25T00:20:48.603Z,1008.89
2018-07-25T00:21:58.276Z,1008.85
2018-07-25T00:23:07.688Z,1008.84
2018-07-25T00:24:17.364Z,1008.86
2018-07-25T00:25:26.518Z,1008.82
2018-07-25T00:26:35.400Z,1008.81
2018-07-25T00:27:44.037Z,1008.82
2018-07-25T00:28:53.440Z,1008.81
2018-07-25T00:30:03.098Z,1008.83
2018-07-25T00:31:12.254Z,1008.82
2018-07-25T00:32:21.398Z,1008.81
2018-07-25T00:33:31.053Z,1008.78
2018-07-25T00:34:40.466Z,1008.81
2018-07-25T00:35:49.929Z,1008.81
2018-07-25T00:36:59.095Z,1008.78
2018-07-25T00:38:09.013Z,1008.8
2018-07-25T00:39:18.163Z,1008.79
2018-07-25T00:40:27.058Z,1008.82
2018-07-25T00:41:36.223Z,1008.81
2018-07-25T00:42:45.387Z,1008.8
2018-07-25T00:43:54.807Z,1008.81
2018-07-25T00:45:04.212Z,1008.76
2018-07-25T00:46:13.381Z,1008.8
2018-07-25T00:47:22.537Z,1008.81
2018-07-25T00:48:32.203Z,1008.81
2018-07-25T00:49:41.611Z,1008.78
2018-07-25T00:50:51.010Z,1008.83
2018-07-25T00:52:00.673Z,1008.87
2018-07-25T00:53:09.847Z,1008.87
2018-07-25T00:54:19.008Z,1008.86
2018-07-25T00:55:27.937Z,1008.84
2018-07-25T00:56:36.851Z,1008.84
2018-07-25T00:57:46.014Z,1008.85
2018-07-25T00:58:55.431Z,1008.85
2018-07-25T01:00:04.577Z,1008.83
2018-07-25T01:01:13.725Z,1008.86
2018-07-25T01:02:22.870Z,1008.88
2018-07-25T01:03:31.777Z,1008.85
2018-07-25T01:04:40.934Z,1008.84
2018-07-25T01:05:49.866Z,1008.89
2018-07-25T01:06:59.286Z,1008.86
2018-07-25T01:08:08.179Z,1008.86
2018-07-25T01:09:17.848Z,1008.88
2018-07-25T01:10:27.261Z,1008.88
2018-07-25T01:11:36.675Z,1008.88
2018-07-25T01:12:45.824Z,1008.86
2018-07-25T01:13:54.973Z,1008.87
2018-07-25T01:15:04.182Z,1008.89
2018-07-25T01:16:13.342Z,1008.87
2018-07-25T01:17:22.292Z,1008.88
2018-07-25T01:18:31.707Z,1008.88
2018-07-25T01:19:40.854Z,1008.88
2018-07-25T01:20:49.737Z,1008.89
2018-07-25T01:21:58.928Z,1008.89
2018-07-25T01:23:08.085Z,1008.91
2018-07-25T01:24:17.243Z,1008.91
2018-07-25T01:25:26.432Z,1008.89
2018-07-25T01:26:35.325Z,1008.91
2018-07-25T01:27:44.488Z,1008.93
2018-07-25T01:28:53.908Z,1008.93
2018-07-25T01:30:03.831Z,1008.94
2018-07-25T01:31:13.009Z,1008.97
2018-07-25T01:32:22.434Z,1008.97
2018-07-25T01:33:31.876Z,1008.96
2018-07-25T01:34:41.094Z,1008.98
2018-07-25T01:35:50.781Z,1008.97
2018-07-25T01:37:00.702Z,1008.96
2018-07-25T01:38:10.373Z,1008.99
2018-07-25T01:39:19.527Z,1008.99
2018-07-25T01:40:28.688Z,1008.99
2018-07-25T01:41:37.853Z,1008.95
2018-07-25T01:42:47.263Z,1008.98
2018-07-25T01:43:56.150Z,1008.95
2018-07-25T01:45:05.040Z,1008.96
2018-07-25T01:46:14.717Z,1008.96
2018-07-25T01:47:23.894Z,1008.96
2018-07-25T01:48:33.289Z,1008.99
2018-07-25T01:49:42.462Z,1008.97
2018-07-25T01:50:51.369Z,1008.98
2018-07-25T01:52:01.050Z,1009.01
2018-07-25T01:53:10.475Z,1009.02
2018-07-25T01:54:19.878Z,1009.06
2018-07-25T01:55:28.800Z,1009.04
2018-07-25T01:56:37.698Z,1009.07
2018-07-25T01:57:46.845Z,1009.07
2018-07-25T01:58:56.508Z,1009.04
2018-07-25T02:00:05.659Z,1009.07
2018-07-25T02:01:14.818Z,1009.06
2018-07-25T02:02:24.328Z,1009.02
2018-07-25T02:03:33.045Z,1009.05
2018-07-25T02:04:42.464Z,1009.05
2018-07-25T02:05:52.128Z,1009.06
2018-07-25T02:07:01.793Z,1009.06
2018-07-25T02:08:10.720Z,1009.09
2018-07-25T02:09:20.455Z,1009.12
2018-07-25T02:10:29.607Z,1009.12
2018-07-25T02:11:39.285Z,1009.13
2018-07-25T02:12:48.971Z,1009.13
2018-07-25T02:13:58.383Z,1009.13
2018-07-25T02:15:07.810Z,1009.16
2018-07-25T02:16:17.260Z,1009.15
2018-07-25T02:17:26.406Z,1009.19
2018-07-25T02:18:35.567Z,1009.17
2018-07-25T02:19:44.486Z,1009.21
2018-07-25T02:20:53.957Z,1009.17
2018-07-25T02:22:03.357Z,1009.2
2018-07-25T02:23:13.027Z,1009.18
2018-07-25T02:24:22.187Z,1009.18
2018-07-25T02:25:31.624Z,1009.21
2018-07-25T02:26:40.517Z,1009.19
2018-07-25T02:27:50.193Z,1009.18
2018-07-25T02:28:59.607Z,1009.22
2018-07-25T02:30:08.519Z,1009.18
2018-07-25T02:31:17.936Z,1009.23
2018-07-25T02:32:27.629Z,1009.26
2018-07-25T02:33:37.568Z,1009.25
2018-07-25T02:34:47.251Z,1009.24
2018-07-25T02:35:56.422Z,1009.27
2018-07-25T02:37:06.172Z,1009.27
2018-07-25T02:38:15.582Z,1009.26
2018-07-25T02:39:25.017Z,1009.27
2018-07-25T02:40:34.426Z,1009.28
2018-07-25T02:41:43.834Z,1009.29
2018-07-25T02:42:53.502Z,1009.31
2018-07-25T02:44:02.958Z,1009.33
2018-07-25T02:45:12.630Z,1009.38
2018-07-25T02:46:21.798Z,1009.37
2018-07-25T02:47:31.209Z,1009.39
2018-07-25T02:48:40.421Z,1009.41
2018-07-25T02:49:49.836Z,1009.41
2018-07-25T02:50:59.523Z,1009.41
2018-07-25T02:52:09.210Z,1009.4
2018-07-25T02:53:19.132Z,1009.4
2018-07-25T02:54:28.302Z,1009.36
2018-07-25T02:55:37.974Z,1009.4
2018-07-25T02:56:47.647Z,1009.4
2018-07-25T02:57:57.689Z,1009.41
2018-07-25T02:59:07.404Z,1009.43
2018-07-25T03:00:16.834Z,1009.46
2018-07-25T03:01:26.262Z,1009.48
2018-07-25T03:02:35.420Z,1009.48
2018-07-25T03:03:44.838Z,1009.52
2018-07-25T03:04:54.784Z,1009.49
2018-07-25T03:06:04.216Z,1009.53
2018-07-25T03:07:13.630Z,1009.52
2018-07-25T03:08:23.331Z,1009.59
2018-07-25T03:09:33.014Z,1009.57
2018-07-25T03:10:41.915Z,1009.58
2018-07-25T03:11:51.138Z,1009.57
2018-07-25T03:13:00.564Z,1009.6
2018-07-25T03:14:10.248Z,1009.54
2018-07-25T03:15:19.654Z,1009.51
2018-07-25T03:16:28.829Z,1009.56
2018-07-25T03:17:38.713Z,1009.55
2018-07-25T03:18:48.145Z,1009.53
2018-07-25T03:19:58.081Z,1009.55
2018-07-25T03:21:07.508Z,1009.53
2018-07-25T03:22:17.419Z,1009.55
2018-07-25T03:23:27.119Z,1009.5
2018-07-25T03:24:36.533Z,1009.48
2018-07-25T03:25:46.200Z,1009.47
2018-07-25T03:26:55.104Z,1009.49
2018-07-25T03:28:04.520Z,1009.48
2018-07-25T03:29:13.930Z,1009.53
2018-07-25T03:30:23.599Z,1009.54
2018-07-25T03:31:33.287Z,1009.5
2018-07-25T03:32:42.864Z,1009.56
2018-07-25T03:33:52.259Z,1009.56
2018-07-25T03:35:01.691Z,1009.54
2018-07-25T03:36:11.142Z,1009.54
2018-07-25T03:37:20.825Z,1009.53
2018-07-25T03:38:30.309Z,1009.55
2018-07-25T03:39:39.471Z,1009.55
2018-07-25T03:40:48.385Z,1009.53
2018-07-25T03:41:57.793Z,1009.58
2018-07-25T03:43:07.240Z,1009.6
2018-07-25T03:44:16.407Z,1009.56
2018-07-25T03:45:25.559Z,1009.55
2018-07-25T03:46:34.979Z,1009.56
2018-07-25T03:47:44.131Z,1009.54
2018-07-25T03:48:53.576Z,1009.54
2018-07-25T03:50:02.734Z,1009.55
2018-07-25T03:51:12.132Z,1009.59
2018-07-25T03:52:21.028Z,1009.58
2018-07-25T03:53:30.683Z,1009.57
2018-07-25T03:54:39.579Z,1009.59
2018-07-25T03:55:48.984Z,1009.58
2018-07-25T03:56:58.691Z,1009.63
2018-07-25T03:58:08.114Z,1009.59
2018-07-25T03:59:17.530Z,1009.6
2018-07-25T04:00:26.442Z,1009.64
2018-07-25T04:01:35.623Z,1009.63
2018-07-25T04:02:44.785Z,1009.66
2018-07-25T04:03:54.500Z,1009.63
2018-07-25T04:05:03.907Z,1009.63
2018-07-25T04:06:12.813Z,1009.64
2018-07-25T04:07:21.969Z,1009.65
2018-07-25T04:08:31.627Z,1009.66
2018-07-25T04:09:41.291Z,1009.65
2018-07-25T04:10:50.691Z,1009.64
2018-07-25T04:12:00.352Z,1009.66
2018-07-25T04:13:09.246Z,1009.66
2018-07-25T04:14:18.664Z,1009.65
2018-07-25T04:15:28.072Z,1009.69
2018-07-25T04:16:37.222Z,1009.69
2018-07-25T04:17:46.369Z,1009.72
2018-07-25T04:18:55.276Z,1009.7
2018-07-25T04:20:04.681Z,1009.75
2018-07-25T04:21:14.101Z,1009.71
2018-07-25T04:22:23.502Z,1009.7
2018-07-25T04:23:32.654Z,1009.74
2018-07-25T04:24:42.350Z,1009.72
2018-07-25T04:25:52.480Z,1009.71
2018-07-25T04:27:01.649Z,1009.73
2018-07-25T04:28:11.060Z,1009.71
2018-07-25T04:29:20.466Z,1009.74
2018-07-25T04:30:29.883Z,1009.76
2018-07-25T04:31:39.038Z,1009.79
2018-07-25T04:32:48.440Z,1009.76
2018-07-25T04:33:57.837Z,1009.78
2018-07-25T04:35:07.494Z,1009.78
2018-07-25T04:36:17.168Z,1009.78
2018-07-25T04:37:26.077Z,1009.83
2018-07-25T04:38:35.488Z,1009.83
2018-07-25T04:39:44.127Z,1009.83
2018-07-25T04:40:53.553Z,1009.83
2018-07-25T04:42:02.961Z,1009.85
2018-07-25T04:43:12.388Z,1009.87
2018-07-25T04:44:22.065Z,1009.88
2018-07-25T04:45:31.215Z,1009.88
2018-07-25T04:46:40.515Z,1009.87
2018-07-25T04:47:50.311Z,1009.89
2018-07-25T04:48:59.462Z,1009.85
2018-07-25T04:50:08.355Z,1009.88
2018-07-25T04:51:18.014Z,1009.87
2018-07-25T04:52:27.166Z,1009.94
2018-07-25T04:53:36.319Z,1009.93
2018-07-25T04:54:45.472Z,1009.95
2018-07-25T04:55:54.874Z,1009.95
2018-07-25T04:57:04.899Z,1010.02
2018-07-25T04:58:14.058Z,1010.01
2018-07-25T04:59:23.207Z,1010.01
2018-07-25T05:00:31.848Z,1010
2018-07-25T05:01:40.734Z,1009.99
2018-07-25T05:02:49.883Z,1009.99
2018-07-25T05:03:59.539Z,1010
2018-07-25T05:05:09.209Z,1009.98
2018-07-25T05:06:18.354Z,1010.04
2018-07-25T05:07:27.519Z,1010.04
2018-07-25T05:08:37.171Z,1010.06
2018-07-25T05:09:46.061Z,1010.06
2018-07-25T05:10:55.472Z,1010.08
2018-07-25T05:12:04.882Z,1010.08
2018-07-25T05:13:14.293Z,1010.1
2018-07-25T05:14:23.441Z,1010.12
2018-07-25T05:15:33.097Z,1010.13
2018-07-25T05:16:43.024Z,1010.11
2018-07-25T05:17:52.214Z,1010.12
2018-07-25T05:19:01.542Z,1010.13
2018-07-25T05:20:10.459Z,1010.14
2018-07-25T05:21:19.873Z,1010.08
2018-07-25T05:22:29.279Z,1010.09
2018-07-25T05:23:38.679Z,1010.12
2018-07-25T05:24:47.827Z,1010.11
2018-07-25T05:25:56.968Z,1010.1
2018-07-25T05:27:05.864Z,1010.08
2018-07-25T05:28:15.041Z,1010.12
2018-07-25T05:29:24.963Z,1010.13
2018-07-25T05:30:34.159Z,1010.14
2018-07-25T05:31:43.328Z,1010.15
2018-07-25T05:32:52.494Z,1010.16
2018-07-25T05:34:01.901Z,1010.19
2018-07-25T05:35:10.792Z,1010.21
2018-07-25T05:36:20.216Z,1010.23
2018-07-25T05:37:29.870Z,1010.3
2018-07-25T05:38:39.544Z,1010.31
2018-07-25T05:39:48.520Z,1010.36
2018-07-25T05:40:57.929Z,1010.31
2018-07-25T05:42:07.080Z,1010.34
2018-07-25T05:43:16.238Z,1010.35
2018-07-25T05:44:25.652Z,1010.34
2018-07-25T05:45:35.078Z,1010.35
2018-07-25T05:46:43.963Z,1010.34
2018-07-25T05:47:52.856Z,1010.39
2018-07-25T05:49:02.265Z,1010.38
2018-07-25T05:50:11.413Z,1010.43
2018-07-25T05:51:20.819Z,1010.46
2018-07-25T05:52:29.969Z,1010.45
2018-07-25T05:53:39.638Z,1010.48
2018-07-25T05:54:49.042Z,1010.49
2018-07-25T05:55:57.996Z,1010.5
2018-07-25T05:57:07.663Z,1010.54
2018-07-25T05:58:17.096Z,1010.51
2018-07-25T05:59:26.494Z,1010.5
2018-07-25T06:00:35.642Z,1010.48
2018-07-25T06:01:45.301Z,1010.51
2018-07-25T06:02:54.790Z,1010.47
2018-07-25T06:04:05.350Z,1010.49
2018-07-25T06:05:15.098Z,1010.48
2018-07-25T06:06:24.259Z,1010.49
2018-07-25T06:07:33.691Z,1010.55
2018-07-25T06:08:42.898Z,1010.55
2018-07-25T06:09:52.452Z,1010.59
2018-07-25T06:11:02.148Z,1010.62
2018-07-25T06:12:11.813Z,1010.59
2018-07-25T06:13:20.963Z,1010.61
2018-07-25T06:14:29.849Z,1010.59
2018-07-25T06:15:39.000Z,1010.59
2018-07-25T06:16:48.147Z,1010.6
2018-07-25T06:17:57.806Z,1010.58
2018-07-25T06:19:06.952Z,1010.61
2018-07-25T06:20:15.918Z,1010.6
2018-07-25T06:21:25.087Z,1010.63
2018-07-25T06:22:34.232Z,1010.62
2018-07-25T06:24:15.499Z,1010.62
2018-07-25T06:25:24.653Z,1010.67
2018-07-25T06:26:33.804Z,1010.65
2018-07-25T06:27:43.487Z,1010.69
2018-07-25T06:28:52.401Z,1010.71
2018-07-25T06:30:01.332Z,1010.72
2018-07-25T06:31:11.001Z,1010.7
2018-07-25T06:32:20.606Z,1010.69
2018-07-25T06:33:30.296Z,1010.71
2018-07-25T06:34:39.748Z,1010.7
2018-07-25T06:35:49.663Z,1010.7
2018-07-25T06:36:59.338Z,1010.72
2018-07-25T06:38:09.057Z,1010.71
2018-07-25T06:39:18.483Z,1010.74
2018-07-25T06:40:27.643Z,1010.73
2018-07-25T06:41:37.151Z,1010.71
2018-07-25T06:42:46.312Z,1010.76
2018-07-25T06:43:55.546Z,1010.77
2018-07-25T06:45:04.963Z,1010.75
2018-07-25T06:46:13.869Z,1010.75
2018-07-25T06:47:22.764Z,1010.78
2018-07-25T06:48:32.179Z,1010.77
2018-07-25T06:49:41.342Z,1010.78
2018-07-25T06:50:50.612Z,1010.74
2018-07-25T06:52:00.616Z,1010.77
2018-07-25T06:53:09.587Z,1010.78
2018-07-25T06:54:18.742Z,1010.8
2018-07-25T06:55:28.164Z,1010.78
2018-07-25T06:56:37.833Z,1010.8
2018-07-25T06:57:46.984Z,1010.81
2018-07-25T06:58:56.144Z,1010.76
2018-07-25T07:00:05.319Z,1010.78
2018-07-25T07:01:14.243Z,1010.78
2018-07-25T07:02:23.663Z,1010.79
2018-07-25T07:03:33.592Z,1010.83
2018-07-25T07:04:42.995Z,1010.86
2018-07-25T07:05:52.153Z,1010.84
2018-07-25T07:07:02.120Z,1010.84
2018-07-25T07:08:11.250Z,1010.84
2018-07-25T07:09:20.654Z,1010.89
2018-07-25T07:10:30.071Z,1010.87
2018-07-25T07:11:39.493Z,1010.88
2018-07-25T07:12:49.321Z,1010.9
2018-07-25T07:13:58.482Z,1010.92
2018-07-25T07:15:07.664Z,1010.92
2018-07-25T07:16:16.880Z,1010.89
2018-07-25T07:17:25.594Z,1010.89
2018-07-25T07:18:35.852Z,1010.85
2018-07-25T07:19:45.282Z,1010.82
2018-07-25T07:20:55.282Z,1010.84
2018-07-25T07:22:04.440Z,1010.87
2018-07-25T07:23:13.342Z,1010.81
2018-07-25T07:24:22.547Z,1010.85
2018-07-25T07:25:31.737Z,1010.85
2018-07-25T07:26:41.441Z,1010.85
2018-07-25T07:27:50.866Z,1010.82
2018-07-25T07:29:00.541Z,1010.86
2018-07-25T07:30:09.955Z,1010.82
2018-07-25T07:31:19.663Z,1010.86
2018-07-25T07:32:29.521Z,1010.87
2018-07-25T07:33:38.690Z,1010.82
2018-07-25T07:34:48.209Z,1010.81
2018-07-25T07:35:57.366Z,1010.8
2018-07-25T07:37:06.288Z,1010.84
2018-07-25T07:38:15.812Z,1010.84
2018-07-25T07:39:24.749Z,1010.82
2018-07-25T07:40:34.168Z,1010.88
2018-07-25T07:41:43.714Z,1010.87
2018-07-25T07:42:53.404Z,1010.81
2018-07-25T07:44:02.647Z,1010.85
2018-07-25T07:45:12.647Z,1010.85
2018-07-25T07:46:22.084Z,1010.85
2018-07-25T07:47:31.686Z,1010.83
2018-07-25T07:48:41.847Z,1010.87
2018-07-25T07:49:51.558Z,1010.84
2018-07-25T07:51:00.987Z,1010.89
2018-07-25T07:52:10.419Z,1010.9
2018-07-25T07:53:19.847Z,1010.87
2018-07-25T07:54:28.769Z,1010.89
2018-07-25T07:55:37.694Z,1010.86
2018-07-25T07:56:47.127Z,1010.88
2018-07-25T07:57:56.045Z,1010.86
2018-07-25T07:59:05.217Z,1010.89
2018-07-25T08:00:14.411Z,1010.89
2018-07-25T08:01:23.847Z,1010.9
2018-07-25T08:02:33.257Z,1010.91
2018-07-25T08:03:42.688Z,1010.86
2018-07-25T08:04:52.143Z,1010.93
2018-07-25T08:06:02.097Z,1010.92
2018-07-25T08:07:11.782Z,1010.91
2018-07-25T08:08:20.715Z,1010.92
2018-07-25T08:09:30.140Z,1010.96
2018-07-25T08:10:39.581Z,1010.92
2018-07-25T08:11:49.552Z,1010.89
2018-07-25T08:12:58.459Z,1010.95
2018-07-25T08:14:08.390Z,1010.97
2018-07-25T08:15:17.822Z,1010.95
2018-07-25T08:16:27.256Z,1010.95
2018-07-25T08:17:36.968Z,1010.93
2018-07-25T08:18:47.105Z,1010.97
2018-07-25T08:19:56.795Z,1010.97
2018-07-25T08:21:06.842Z,1010.91
2018-07-25T08:22:16.241Z,1010.89
2018-07-25T08:23:25.655Z,1010.91
2018-07-25T08:24:35.064Z,1010.94
2018-07-25T08:25:44.528Z,1010.92
2018-07-25T08:26:54.463Z,1010.93
2018-07-25T08:28:03.636Z,1010.93
2018-07-25T08:29:13.076Z,1010.94
2018-07-25T08:30:22.500Z,1010.95
2018-07-25T08:31:32.177Z,1010.92
2018-07-25T08:32:41.600Z,1010.96
2018-07-25T08:33:51.024Z,1010.95
2018-07-25T08:35:00.193Z,1010.95
2018-07-25T08:36:09.595Z,1010.91
2018-07-25T08:37:19.266Z,1010.89
2018-07-25T08:38:28.689Z,1010.9
2018-07-25T08:39:38.111Z,1010.9
2018-07-25T08:40:47.522Z,1010.89
2018-07-25T08:41:57.195Z,1010.84
2018-07-25T08:43:06.612Z,1010.82
2018-07-25T08:44:15.772Z,1010.84
2018-07-25T08:45:24.412Z,1010.85
2018-07-25T08:46:34.099Z,1010.82
2018-07-25T08:47:43.639Z,1010.84
2018-07-25T08:48:53.308Z,1010.83
2018-07-25T08:50:02.998Z,1010.82
2018-07-25T08:51:12.417Z,1010.83
2018-07-25T08:52:22.097Z,1010.82
2018-07-25T08:53:31.524Z,1010.82
2018-07-25T08:54:40.942Z,1010.83
2018-07-25T08:55:49.848Z,1010.81
2018-07-25T08:56:59.529Z,1010.82
2018-07-25T08:58:08.476Z,1010.85
2018-07-25T08:59:17.626Z,1010.83
2018-07-25T09:00:27.326Z,1010.86
2018-07-25T09:01:37.318Z,1010.81
2018-07-25T09:02:46.233Z,1010.81
2018-07-25T09:03:56.149Z,1010.81
2018-07-25T09:05:05.577Z,1010.78
2018-07-25T09:06:15.502Z,1010.81
2018-07-25T09:07:24.764Z,1010.76
2018-07-25T09:08:34.686Z,1010.77
2018-07-25T09:09:44.443Z,1010.76
2018-07-25T09:10:54.220Z,1010.78
2018-07-25T09:12:03.366Z,1010.76
2018-07-25T09:13:12.787Z,1010.75
2018-07-25T09:14:21.705Z,1010.8
2018-07-25T09:15:31.382Z,1010.75
2018-07-25T09:16:40.786Z,1010.77
2018-07-25T09:17:50.690Z,1010.8
2018-07-25T09:19:00.377Z,1010.81
2018-07-25T09:20:10.577Z,1010.78
2018-07-25T09:21:19.488Z,1010.79
2018-07-25T09:22:28.635Z,1010.79
2018-07-25T09:23:38.076Z,1010.77
2018-07-25T09:24:47.486Z,1010.74
2018-07-25T09:25:56.898Z,1010.78
2018-07-25T09:27:05.808Z,1010.78
2018-07-25T09:28:16.055Z,1010.78
2018-07-25T09:29:25.229Z,1010.71
2018-07-25T09:30:35.031Z,1010.76
2018-07-25T09:31:45.385Z,1010.8
2018-07-25T09:32:54.311Z,1010.8
2018-07-25T09:34:03.611Z,1010.77
2018-07-25T09:35:13.998Z,1010.78
2018-07-25T09:36:23.436Z,1010.79
2018-07-25T09:37:32.106Z,1010.77
2018-07-25T09:38:41.555Z,1010.74
2018-07-25T09:39:51.604Z,1010.8
2018-07-25T09:41:01.688Z,1010.78
2018-07-25T09:42:11.855Z,1010.76
2018-07-25T09:43:21.588Z,1010.76
2018-07-25T09:44:31.046Z,1010.78
2018-07-25T09:45:40.550Z,1010.78
2018-07-25T09:46:49.453Z,1010.8
2018-07-25T09:47:59.822Z,1010.76
2018-07-25T09:49:09.767Z,1010.78
2018-07-25T09:50:19.331Z,1010.7
2018-07-25T09:51:28.554Z,1010.75
2018-07-25T09:52:37.500Z,1010.76
2018-07-25T09:53:47.476Z,1010.74
2018-07-25T09:54:57.041Z,1010.72
2018-07-25T09:56:06.237Z,1010.72
2018-07-25T09:57:16.348Z,1010.69
2018-07-25T09:58:25.874Z,1010.69
2018-07-25T09:59:35.050Z,1010.67
2018-07-25T10:00:44.245Z,1010.69
2018-07-25T10:01:54.125Z,1010.69
2018-07-25T10:03:03.301Z,1010.68
2018-07-25T10:04:12.780Z,1010.69
2018-07-25T10:05:22.528Z,1010.71
2018-07-25T10:06:32.005Z,1010.7
2018-07-25T10:07:41.688Z,1010.69
2018-07-25T10:08:51.921Z,1010.74
2018-07-25T10:10:01.396Z,1010.67
2018-07-25T10:11:11.219Z,1010.68
2018-07-25T10:12:21.315Z,1010.66
2018-07-25T10:13:30.801Z,1010.61
2018-07-25T10:14:40.214Z,1010.61
2018-07-25T10:15:49.916Z,1010.62
2018-07-25T10:16:59.402Z,1010.63
2018-07-25T10:18:08.858Z,1010.59
2018-07-25T10:19:17.761Z,1010.6
2018-07-25T10:20:26.936Z,1010.57
2018-07-25T10:21:36.735Z,1010.58
2018-07-25T10:22:46.233Z,1010.58
2018-07-25T10:23:55.412Z,1010.53
2018-07-25T10:25:04.312Z,1010.51
2018-07-25T10:26:13.506Z,1010.49
2018-07-25T10:27:23.433Z,1010.48
2018-07-25T10:28:33.345Z,1010.48
2018-07-25T10:29:42.797Z,1010.49
2018-07-25T10:30:51.729Z,1010.44
2018-07-25T10:32:00.943Z,1010.48
2018-07-25T10:33:10.716Z,1010.51
2018-07-25T10:34:19.368Z,1010.5
2018-07-25T10:35:29.466Z,1010.49
2018-07-25T10:36:39.000Z,1010.46
2018-07-25T10:37:48.736Z,1010.43
2018-07-25T10:38:58.003Z,1010.46
2018-07-25T10:40:08.036Z,1010.51
2018-07-25T10:41:17.472Z,1010.43
2018-07-25T10:42:27.556Z,1010.44
2018-07-25T10:43:37.633Z,1010.4
2018-07-25T10:44:47.352Z,1010.43
2018-07-25T10:45:57.424Z,1010.4
2018-07-25T10:47:07.180Z,1010.36
2018-07-25T10:48:16.652Z,1010.35
2018-07-25T10:49:26.098Z,1010.4
2018-07-25T10:50:35.316Z,1010.41
2018-07-25T10:51:44.520Z,1010.37
2018-07-25T10:52:53.941Z,1010.39
2018-07-25T10:54:03.380Z,1010.34
2018-07-25T10:55:12.833Z,1010.36
2018-07-25T10:56:22.010Z,1010.34
2018-07-25T10:57:31.512Z,1010.34
2018-07-25T10:58:40.996Z,1010.33
2018-07-25T10:59:50.721Z,1010.34
2018-07-25T11:01:00.717Z,1010.33
2018-07-25T11:02:10.245Z,1010.33
2018-07-25T11:03:18.845Z,1010.34
2018-07-25T11:04:28.053Z,1010.36
2018-07-25T11:05:37.271Z,1010.31
2018-07-25T11:06:46.203Z,1010.32
2018-07-25T11:07:55.670Z,1010.26
2018-07-25T11:09:04.846Z,1010.31
2018-07-25T11:10:14.573Z,1010.31
2018-07-25T11:11:23.999Z,1010.33
2018-07-25T11:12:32.909Z,1010.28
2018-07-25T11:13:42.380Z,1010.25
2018-07-25T11:14:51.811Z,1010.26
2018-07-25T11:16:01.241Z,1010.27
2018-07-25T11:17:10.952Z,1010.16
2018-07-25T11:18:20.122Z,1010.18
2018-07-25T11:19:30.084Z,1010.17
2018-07-25T11:20:39.271Z,1010.17
2018-07-25T11:21:48.715Z,1010.21
2018-07-25T11:22:58.177Z,1010.18
2018-07-25T11:24:08.445Z,1010.2
2018-07-25T11:25:18.137Z,1010.16
2018-07-25T11:26:27.571Z,1010.13
2018-07-25T11:27:36.480Z,1010.17
2018-07-25T11:28:45.913Z,1010.13
2018-07-25T11:29:55.321Z,1010.16
2018-07-25T11:31:05.268Z,1010.12
2018-07-25T11:32:14.667Z,1010.12
2018-07-25T11:33:24.709Z,1010.15
2018-07-25T11:34:34.113Z,1010.06
2018-07-25T11:35:43.776Z,1010.09
2018-07-25T11:36:53.180Z,1010.06
2018-07-25T11:38:02.617Z,1010
2018-07-25T11:39:12.846Z,1010.01
2018-07-25T11:40:22.526Z,1010
2018-07-25T11:41:31.687Z,1010.01
2018-07-25T11:42:41.348Z,1009.95
2018-07-25T11:43:50.875Z,1010.01
2018-07-25T11:45:00.171Z,1009.94
2018-07-25T11:46:09.845Z,1009.93
2018-07-25T11:47:19.285Z,1009.97
2018-07-25T11:48:28.698Z,1009.9
2018-07-25T11:49:37.855Z,1009.97
2018-07-25T11:50:47.017Z,1009.88
2018-07-25T11:51:56.682Z,1009.9
2018-07-25T11:53:05.838Z,1009.96
2018-07-25T11:54:14.981Z,1009.91
2018-07-25T11:55:24.491Z,1009.85
2018-07-25T11:56:34.582Z,1009.87
2018-07-25T11:57:43.473Z,1009.85
2018-07-25T11:58:52.909Z,1009.84
2018-07-25T12:00:02.322Z,1009.89
2018-07-25T12:01:11.764Z,1009.85
2018-07-25T12:02:21.619Z,1009.86
2018-07-25T12:03:31.045Z,1009.89
2018-07-25T12:04:40.469Z,1009.89
2018-07-25T12:05:49.886Z,1009.86
2018-07-25T12:08:10.211Z,1009.86
2018-07-25T12:09:20.333Z,1009.84
2018-07-25T12:10:31.208Z,1009.89
2018-07-25T12:11:41.064Z,1009.88
2018-07-25T12:12:51.074Z,1009.84
2018-07-25T12:14:01.866Z,1009.82
2018-07-25T12:15:13.168Z,1009.81
2018-07-25T12:16:22.471Z,1009.81
2018-07-25T12:17:32.680Z,1009.79
2018-07-25T12:18:42.648Z,1009.72
2018-07-25T12:19:51.293Z,1009.69
2018-07-25T12:21:00.237Z,1009.72
2018-07-25T12:22:10.668Z,1009.74
2018-07-25T12:23:21.339Z,1009.68
2018-07-25T12:24:29.978Z,1009.68
2018-07-25T12:25:39.881Z,1009.66
2018-07-25T12:26:49.511Z,1009.63
2018-07-25T12:27:58.830Z,1009.63
2018-07-25T12:29:07.997Z,1009.66
2018-07-25T12:30:18.249Z,1009.61
2018-07-25T12:31:27.525Z,1009.58
2018-07-25T12:32:37.652Z,1009.57
2018-07-25T12:33:47.249Z,1009.53
2018-07-25T12:34:57.196Z,1009.61
2018-07-25T12:36:06.125Z,1009.59
2018-07-25T12:37:16.014Z,1009.58
2018-07-25T12:38:25.472Z,1009.56
2018-07-25T12:39:34.928Z,1009.59
2018-07-25T12:40:44.735Z,1009.55
2018-07-25T12:41:54.690Z,1009.58
2018-07-25T12:43:04.531Z,1009.58
2018-07-25T12:44:14.345Z,1009.6
2018-07-25T12:45:22.986Z,1009.6
2018-07-25T12:46:32.431Z,1009.56
2018-07-25T12:47:42.325Z,1009.54
2018-07-25T12:48:51.241Z,1009.55
2018-07-25T12:50:01.399Z,1009.56
2018-07-25T12:51:11.008Z,1009.58
2018-07-25T12:52:20.485Z,1009.61
2018-07-25T12:53:30.604Z,1009.6
2018-07-25T12:54:40.536Z,1009.53
2018-07-25T12:55:49.735Z,1009.6
2018-07-25T12:56:58.920Z,1009.6
2018-07-25T12:58:08.707Z,1009.57
2018-07-25T12:59:17.607Z,1009.56
2018-07-25T13:00:27.091Z,1009.52
2018-07-25T13:01:36.656Z,1009.51
2018-07-25T13:02:45.866Z,1009.53
2018-07-25T13:03:55.240Z,1009.48
2018-07-25T13:05:04.969Z,1009.49
2018-07-25T13:06:14.419Z,1009.48
2018-07-25T13:07:23.689Z,1009.43
2018-07-25T13:08:32.873Z,1009.48
2018-07-25T13:09:42.358Z,1009.44
2018-07-25T13:10:51.995Z,1009.45
2018-07-25T13:12:01.478Z,1009.47
2018-07-25T13:13:10.695Z,1009.48
2018-07-25T13:14:20.435Z,1009.46
2018-07-25T13:15:30.170Z,1009.41
2018-07-25T13:16:39.332Z,1009.39
2018-07-25T13:17:49.375Z,1009.39
2018-07-25T13:18:59.084Z,1009.34
2018-07-25T13:20:08.289Z,1009.33
2018-07-25T13:21:18.056Z,1009.35
2018-07-25T13:22:27.503Z,1009.36
2018-07-25T13:23:37.069Z,1009.4
2018-07-25T13:24:46.838Z,1009.36
2018-07-25T13:25:56.287Z,1009.39
2018-07-25T13:27:05.202Z,1009.4
2018-07-25T13:28:14.464Z,1009.39
2018-07-25T13:29:23.768Z,1009.36
2018-07-25T13:30:33.283Z,1009.37
2018-07-25T13:31:43.298Z,1009.35
2018-07-25T13:32:52.756Z,1009.37
2018-07-25T13:34:02.215Z,1009.31
2018-07-25T13:35:11.683Z,1009.33
2018-07-25T13:36:21.155Z,1009.28
2018-07-25T13:37:30.953Z,1009.3
2018-07-25T13:38:40.419Z,1009.34
2018-07-25T13:39:49.584Z,1009.27
2018-07-25T13:40:59.072Z,1009.26
2018-07-25T13:42:09.039Z,1009.35
2018-07-25T13:43:17.947Z,1009.26
2018-07-25T13:44:27.171Z,1009.24
2018-07-25T13:45:36.554Z,1009.2
2018-07-25T13:46:47.718Z,1009.25
2018-07-25T13:47:56.664Z,1009.26
2018-07-25T13:49:06.433Z,1009.29
2018-07-25T13:50:15.614Z,1009.24
2018-07-25T13:51:25.341Z,1009.29
2018-07-25T13:52:35.102Z,1009.26
2018-07-25T13:53:44.573Z,1009.29
2018-07-25T13:54:54.302Z,1009.29
2018-07-25T13:56:03.753Z,1009.29
2018-07-25T13:57:13.484Z,1009.27
2018-07-25T13:58:23.240Z,1009.32
2018-07-25T13:59:32.994Z,1009.32
2018-07-25T14:00:42.974Z,1009.44
2018-07-25T14:01:52.444Z,1009.47
2018-07-25T14:03:01.926Z,1009.35
2018-07-25T14:04:11.402Z,1009.3
2018-07-25T14:05:21.206Z,1009.35